createdAt,value
2017-11-26T00:00:59.010Z,91.47
2017-11-26T00:02:03.912Z,91.23
2017-11-26T00:03:08.752Z,92.77
2017-11-26T00:04:13.766Z,91.53
2017-11-26T00:05:18.587Z,91.03
2017-11-26T00:06:23.370Z,91.50
2017-11-26T00:07:28.551Z,90.77
2017-11-26T00:08:33.434Z,90.90
2017-11-26T00:09:38.171Z,90.48
2017-11-26T00:10:42.917Z,90.98
2017-11-26T00:11:47.943Z,90.88
2017-11-26T00:12:52.804Z,90.33
2017-11-26T00:13:58.307Z,90.64
2017-11-26T00:15:03.105Z,91.35
2017-11-26T00:16:08.184Z,92.17
2017-11-26T00:17:13.017Z,91.16
2017-11-26T00:18:18.061Z,90.44
2017-11-26T00:19:23.210Z,90.83
2017-11-26T00:20:28.036Z,90.30
2017-11-26T00:21:32.825Z,91.20
2017-11-26T00:22:37.740Z,91.28
2017-11-26T00:23:42.656Z,90.65
2017-11-26T00:24:47.379Z,90.61
2017-11-26T00:25:52.582Z,91.34
2017-11-26T00:26:57.482Z,91.14
2017-11-26T00:28:02.499Z,91.41
2017-11-26T00:29:07.504Z,91.13
2017-11-26T00:30:12.187Z,90.43
2017-11-26T00:31:17.128Z,90.48
2017-11-26T00:32:22.298Z,91.42
2017-11-26T00:33:26.963Z,92.29
2017-11-26T00:34:31.874Z,91.96
2017-11-26T00:35:36.871Z,91.88
2017-11-26T00:36:41.809Z,91.79
2017-11-26T00:37:46.769Z,92.11
2017-11-26T00:38:51.758Z,91.82
2017-11-26T00:39:56.546Z,91.27
2017-11-26T00:41:01.505Z,90.72
2017-11-26T00:42:06.411Z,90.79
2017-11-26T00:43:11.427Z,90.94
2017-11-26T00:44:16.347Z,91.24
2017-11-26T00:45:21.449Z,91.55
2017-11-26T00:46:26.967Z,91.28
2017-11-26T00:47:31.715Z,90.89
2017-11-26T00:48:36.454Z,90.81
2017-11-26T00:49:41.225Z,91.39
2017-11-26T00:50:46.193Z,91.39
2017-11-26T00:51:51.194Z,91.36
2017-11-26T00:52:55.874Z,92.14
2017-11-26T00:54:00.721Z,91.43
2017-11-26T00:55:05.570Z,90.89
2017-11-26T00:56:10.270Z,90.93
2017-11-26T00:57:14.931Z,91.26
2017-11-26T00:58:19.864Z,91.68
2017-11-26T00:59:24.785Z,91.93
2017-11-26T01:00:29.659Z,90.87
2017-11-26T01:01:34.399Z,91.56
2017-11-26T01:02:39.333Z,91.82
2017-11-26T01:03:44.068Z,90.56
2017-11-26T01:04:49.164Z,90.84
2017-11-26T01:05:53.904Z,91.44
2017-11-26T01:06:58.561Z,91.37
2017-11-26T01:08:03.491Z,91.22
2017-11-26T01:09:08.190Z,91.04
2017-11-26T01:10:12.904Z,91.43
2017-11-26T01:11:18.087Z,90.94
2017-11-26T01:12:22.814Z,91.14
2017-11-26T01:13:27.649Z,91.37
2017-11-26T01:14:32.449Z,91.53
2017-11-26T01:15:37.255Z,91.93
2017-11-26T01:16:42.370Z,91.25
2017-11-26T01:17:47.458Z,91.65
2017-11-26T01:18:52.463Z,91.66
2017-11-26T01:19:57.393Z,91.75
2017-11-26T01:21:02.224Z,91.84
2017-11-26T01:22:07.401Z,91.90
2017-11-26T01:23:12.350Z,91.62
2017-11-26T01:24:17.157Z,90.91
2017-11-26T01:25:22.214Z,91.46
2017-11-26T01:26:26.999Z,90.66
2017-11-26T01:27:31.758Z,91.19
2017-11-26T01:28:37.638Z,90.29
2017-11-26T01:29:43.394Z,90.66
2017-11-26T01:30:48.637Z,90.49
2017-11-26T01:31:53.368Z,91.59
2017-11-26T01:32:58.116Z,91.59
2017-11-26T01:34:03.003Z,91.15
2017-11-26T01:35:07.946Z,91.73
2017-11-26T01:36:13.225Z,90.94
2017-11-26T01:37:18.030Z,90.07
2017-11-26T01:38:22.834Z,89.83
2017-11-26T01:39:27.642Z,90.63
2017-11-26T01:40:32.704Z,90.89
2017-11-26T01:41:37.521Z,91.68
2017-11-26T01:42:42.997Z,91.56
2017-11-26T01:43:48.326Z,91.34
2017-11-26T01:44:53.441Z,91.51
2017-11-26T01:45:58.172Z,91.03
2017-11-26T01:47:03.377Z,91.48
2017-11-26T01:48:08.377Z,90.83
2017-11-26T01:49:13.672Z,90.69
2017-11-26T01:50:18.506Z,91.66
2017-11-26T01:51:23.343Z,91.75
2017-11-26T01:52:28.853Z,91.14
2017-11-26T01:53:33.816Z,91.23
2017-11-26T01:54:38.675Z,91.77
2017-11-26T01:55:43.827Z,91.37
2017-11-26T01:56:48.427Z,90.83
2017-11-26T01:57:53.023Z,90.92
2017-11-26T01:58:57.806Z,90.65
2017-11-26T02:00:02.537Z,90.24
2017-11-26T02:01:07.345Z,90.35
2017-11-26T02:02:12.503Z,90.95
2017-11-26T02:03:17.579Z,90.60
2017-11-26T02:04:22.597Z,90.50
2017-11-26T02:05:27.990Z,90.17
2017-11-26T02:06:32.948Z,90.17
2017-11-26T02:07:37.893Z,90.03
2017-11-26T02:08:43.084Z,90.46
2017-11-26T02:09:47.908Z,90.82
2017-11-26T02:10:52.841Z,90.17
2017-11-26T02:11:57.580Z,90.64
2017-11-26T02:13:02.301Z,90.31
2017-11-26T02:14:07.149Z,89.77
2017-11-26T02:15:12.191Z,90.35
2017-11-26T02:16:16.956Z,90.10
2017-11-26T02:17:21.767Z,89.96
2017-11-26T02:18:26.590Z,90.66
2017-11-26T02:19:31.549Z,90.83
2017-11-26T02:20:36.413Z,90.21
2017-11-26T02:21:41.536Z,89.91
2017-11-26T02:22:46.472Z,90.17
2017-11-26T02:23:57.123Z,89.99
2017-11-26T02:25:02.048Z,90.10
2017-11-26T02:26:07.135Z,90.01
2017-11-26T02:27:11.841Z,90.34
2017-11-26T02:28:16.842Z,90.26
2017-11-26T02:29:21.599Z,90.73
2017-11-26T02:30:26.539Z,90.64
2017-11-26T02:31:35.474Z,90.43
2017-11-26T02:34:47.683Z,89.72
2017-11-26T02:35:56.713Z,90.31
2017-11-26T02:37:01.496Z,90.74
2017-11-26T02:38:06.251Z,90.25
2017-11-26T02:39:11.506Z,90.40
2017-11-26T02:40:16.299Z,90.03
2017-11-26T02:41:21.391Z,89.84
2017-11-26T02:42:26.132Z,90.90
2017-11-26T02:43:30.918Z,89.85
2017-11-26T02:44:35.657Z,90.03
2017-11-26T02:45:40.411Z,89.66
2017-11-26T02:46:45.127Z,89.40
2017-11-26T02:47:50.137Z,90.42
2017-11-26T02:48:54.736Z,89.78
2017-11-26T02:49:59.330Z,89.80
2017-11-26T02:51:04.102Z,89.91
2017-11-26T02:52:08.825Z,89.36
2017-11-26T02:53:13.548Z,89.11
2017-11-26T02:54:19.517Z,89.46
2017-11-26T02:55:24.207Z,89.61
2017-11-26T02:56:28.994Z,89.59
2017-11-26T02:57:33.659Z,89.33
2017-11-26T02:58:38.309Z,88.80
2017-11-26T02:59:42.984Z,89.52
2017-11-26T03:00:47.909Z,88.93
2017-11-26T03:01:52.554Z,89.53
2017-11-26T03:02:57.264Z,89.85
2017-11-26T03:04:01.941Z,89.54
2017-11-26T03:05:06.625Z,90.13
2017-11-26T03:06:11.243Z,89.76
2017-11-26T03:07:16.153Z,90.05
2017-11-26T03:08:20.788Z,89.31
2017-11-26T03:09:25.406Z,89.61
2017-11-26T03:10:30.040Z,89.73
2017-11-26T03:11:34.793Z,89.44
2017-11-26T03:12:39.433Z,89.88
2017-11-26T03:13:44.452Z,89.78
2017-11-26T03:14:49.118Z,89.72
2017-11-26T03:15:53.784Z,89.65
2017-11-26T03:16:58.431Z,90.06
2017-11-26T03:18:04.080Z,88.94
2017-11-26T03:19:08.813Z,89.34
2017-11-26T03:20:13.752Z,90.38
2017-11-26T03:21:18.458Z,89.47
2017-11-26T03:22:23.160Z,89.81
2017-11-26T03:23:27.793Z,89.64
2017-11-26T03:24:32.450Z,89.23
2017-11-26T03:25:37.116Z,90.33
2017-11-26T03:26:42.193Z,90.39
2017-11-26T03:27:47.058Z,89.56
2017-11-26T03:28:51.837Z,89.17
2017-11-26T03:29:56.503Z,89.40
2017-11-26T03:31:01.253Z,88.68
2017-11-26T03:32:05.948Z,88.50
2017-11-26T03:33:11.003Z,88.21
2017-11-26T03:34:15.645Z,88.52
2017-11-26T03:35:20.397Z,89.22
2017-11-26T03:36:25.151Z,88.15
2017-11-26T03:37:29.866Z,88.64
2017-11-26T03:38:34.765Z,88.81
2017-11-26T03:39:39.943Z,88.66
2017-11-26T03:40:44.784Z,88.85
2017-11-26T03:41:49.654Z,88.74
2017-11-26T03:42:54.406Z,88.28
2017-11-26T03:43:59.123Z,89.04
2017-11-26T03:45:03.938Z,88.19
2017-11-26T03:46:08.932Z,88.62
2017-11-26T03:47:13.673Z,88.64
2017-11-26T03:48:18.387Z,88.63
2017-11-26T03:49:23.082Z,88.20
2017-11-26T03:50:27.786Z,89.04
2017-11-26T03:51:32.433Z,89.36
2017-11-26T03:52:37.335Z,88.80
2017-11-26T03:53:41.958Z,88.40
2017-11-26T03:54:46.647Z,89.30
2017-11-26T03:55:51.313Z,88.43
2017-11-26T03:56:55.998Z,89.27
2017-11-26T03:58:00.761Z,88.44
2017-11-26T03:59:05.791Z,89.18
2017-11-26T04:00:10.527Z,88.85
2017-11-26T04:01:15.215Z,89.15
2017-11-26T04:02:19.974Z,88.58
2017-11-26T04:03:24.697Z,88.60
2017-11-26T04:04:29.453Z,88.63
2017-11-26T04:05:34.525Z,88.42
2017-11-26T04:06:39.244Z,88.60
2017-11-26T04:07:43.950Z,88.47
2017-11-26T04:08:48.726Z,88.42
2017-11-26T04:09:53.477Z,88.80
2017-11-26T04:10:58.207Z,88.62
2017-11-26T04:12:03.284Z,88.57
2017-11-26T04:13:08.016Z,87.30
2017-11-26T04:14:12.734Z,87.58
2017-11-26T04:15:17.461Z,87.98
2017-11-26T04:16:22.225Z,88.61
2017-11-26T04:17:26.957Z,88.25
2017-11-26T04:18:31.936Z,88.11
2017-11-26T04:19:36.705Z,87.72
2017-11-26T04:20:41.424Z,87.62
2017-11-26T04:21:46.203Z,88.55
2017-11-26T04:22:50.980Z,88.36
2017-11-26T04:23:56.306Z,88.54
2017-11-26T04:25:02.158Z,88.74
2017-11-26T04:26:06.885Z,89.13
2017-11-26T04:27:11.664Z,88.91
2017-11-26T04:28:16.444Z,88.55
2017-11-26T04:29:21.214Z,88.04
2017-11-26T04:30:25.939Z,88.68
2017-11-26T04:31:30.961Z,88.16
2017-11-26T04:32:35.735Z,87.95
2017-11-26T04:33:40.458Z,88.04
2017-11-26T04:34:45.151Z,88.62
2017-11-26T04:35:49.887Z,88.36
2017-11-26T04:36:54.683Z,88.50
2017-11-26T04:37:59.740Z,88.45
2017-11-26T04:39:04.551Z,88.38
2017-11-26T04:40:09.313Z,88.20
2017-11-26T04:41:14.137Z,88.40
2017-11-26T04:42:18.961Z,88.73
2017-11-26T04:43:23.709Z,88.80
2017-11-26T04:44:28.737Z,88.57
2017-11-26T04:45:33.428Z,88.82
2017-11-26T04:46:38.184Z,88.63
2017-11-26T04:47:42.997Z,88.96
2017-11-26T04:48:47.736Z,89.14
2017-11-26T04:49:52.542Z,88.50
2017-11-26T04:50:57.326Z,88.85
2017-11-26T04:52:02.068Z,89.11
2017-11-26T04:53:06.804Z,88.14
2017-11-26T04:54:11.542Z,88.66
2017-11-26T04:55:16.188Z,88.88
2017-11-26T04:56:20.827Z,88.84
2017-11-26T04:57:25.831Z,89.13
2017-11-26T04:58:30.490Z,89.17
2017-11-26T04:59:35.179Z,89.46
2017-11-26T05:15:21.555Z,89.46
2017-11-26T05:16:26.343Z,89.57
2017-11-26T05:17:31.070Z,88.94
2017-11-26T05:18:35.820Z,89.23
2017-11-26T05:19:40.601Z,89.68
2017-11-26T05:20:45.765Z,89.08
2017-11-26T05:21:50.544Z,88.86
2017-11-26T05:22:55.308Z,89.52
2017-11-26T05:24:00.054Z,89.18
2017-11-26T05:25:04.836Z,89.24
2017-11-26T05:26:09.598Z,89.30
2017-11-26T05:27:14.666Z,89.20
2017-11-26T05:28:19.372Z,89.38
2017-11-26T05:29:24.127Z,89.42
2017-11-26T05:30:28.904Z,90.04
2017-11-26T05:31:33.657Z,89.75
2017-11-26T05:32:38.383Z,89.57
2017-11-26T05:33:43.569Z,89.30
2017-11-26T05:34:48.448Z,89.77
2017-11-26T05:35:53.191Z,90.06
2017-11-26T05:36:57.976Z,89.94
2017-11-26T05:38:02.830Z,89.88
2017-11-26T05:39:07.747Z,90.31
2017-11-26T05:40:13.741Z,89.81
2017-11-26T05:41:18.506Z,89.02
2017-11-26T05:42:23.272Z,88.34
2017-11-26T05:43:28.039Z,89.85
2017-11-26T05:44:32.808Z,89.76
2017-11-26T05:45:37.665Z,90.00
2017-11-26T05:46:42.720Z,89.82
2017-11-26T05:47:47.937Z,89.79
2017-11-26T05:48:52.546Z,89.50
2017-11-26T05:49:57.243Z,89.79
2017-11-26T05:51:01.765Z,89.42
2017-11-26T05:52:06.286Z,89.34
2017-11-26T05:53:11.183Z,89.91
2017-11-26T05:54:15.764Z,89.97
2017-11-26T05:55:20.900Z,89.84
2017-11-26T05:56:25.410Z,89.92
2017-11-26T05:57:30.023Z,90.69
2017-11-26T05:58:34.717Z,90.10
2017-11-26T05:59:39.838Z,90.57
2017-11-26T06:00:44.814Z,90.92
2017-11-26T06:01:49.528Z,89.44
2017-11-26T06:05:44.671Z,89.62
2017-11-26T06:06:49.134Z,89.69
2017-11-26T06:07:53.576Z,88.78
2017-11-26T06:08:57.984Z,88.42
2017-11-26T06:10:02.651Z,88.82
2017-11-26T06:11:07.193Z,88.69
2017-11-26T06:12:12.256Z,88.97
2017-11-26T06:13:16.863Z,88.63
2017-11-26T06:14:21.454Z,88.06
2017-11-26T06:15:26.105Z,88.56
2017-11-26T06:16:30.769Z,88.79
2017-11-26T06:17:35.428Z,88.53
2017-11-26T06:18:40.620Z,88.64
2017-11-26T06:19:45.147Z,88.43
2017-11-26T06:20:49.821Z,88.85
2017-11-26T06:21:54.485Z,88.53
2017-11-26T06:22:59.093Z,88.49
2017-11-26T06:24:03.649Z,88.44
2017-11-26T06:25:08.659Z,88.12
2017-11-26T06:26:13.277Z,88.25
2017-11-26T06:27:18.075Z,88.57
2017-11-26T06:28:22.732Z,87.94
2017-11-26T06:29:27.385Z,86.82
2017-11-26T06:30:32.046Z,88.10
2017-11-26T06:31:37.110Z,88.16
2017-11-26T06:32:41.850Z,87.70
2017-11-26T06:33:46.577Z,88.72
2017-11-26T06:34:51.242Z,88.77
2017-11-26T06:35:55.940Z,88.53
2017-11-26T06:37:00.673Z,87.88
2017-11-26T06:38:06.005Z,87.79
2017-11-26T06:39:10.763Z,87.86
2017-11-26T06:40:15.566Z,88.15
2017-11-26T06:41:20.460Z,88.85
2017-11-26T06:42:25.261Z,89.16
2017-11-26T06:43:29.983Z,88.75
2017-11-26T06:44:35.322Z,88.35
2017-11-26T06:45:39.953Z,87.72
2017-11-26T06:46:44.821Z,88.56
2017-11-26T06:47:49.528Z,87.89
2017-11-26T06:48:54.230Z,87.71
2017-11-26T06:49:58.912Z,87.45
2017-11-26T06:51:04.071Z,88.29
2017-11-26T06:52:08.775Z,88.54
2017-11-26T06:53:13.435Z,88.78
2017-11-26T06:54:18.179Z,87.36
2017-11-26T06:55:22.923Z,88.48
2017-11-26T06:56:27.626Z,88.59
2017-11-26T06:57:32.863Z,87.90
2017-11-26T06:58:37.526Z,87.89
2017-11-26T06:59:42.090Z,87.92
2017-11-26T07:00:46.608Z,87.40
2017-11-26T07:01:51.368Z,87.04
2017-11-26T07:02:56.010Z,87.33
2017-11-26T07:04:01.049Z,87.64
2017-11-26T07:05:05.754Z,87.45
2017-11-26T07:06:10.430Z,87.14
2017-11-26T07:07:15.121Z,87.45
2017-11-26T07:08:19.870Z,87.50
2017-11-26T07:09:24.547Z,87.93
2017-11-26T07:10:29.532Z,88.09
2017-11-26T07:11:34.609Z,87.19
2017-11-26T07:12:39.502Z,87.55
2017-11-26T07:13:44.344Z,87.16
2017-11-26T07:14:49.103Z,87.99
2017-11-26T07:15:53.900Z,88.23
2017-11-26T07:16:59.151Z,89.04
2017-11-26T07:18:04.117Z,87.78
2017-11-26T07:19:08.898Z,86.75
2017-11-26T07:20:13.730Z,87.41
2017-11-26T07:21:19.162Z,87.26
2017-11-26T07:22:25.184Z,87.74
2017-11-26T07:23:30.396Z,87.90
2017-11-26T07:24:35.208Z,86.41
2017-11-26T07:25:39.987Z,87.42
2017-11-26T07:26:44.771Z,86.51
2017-11-26T07:27:49.547Z,86.42
2017-11-26T07:28:54.320Z,85.83
2017-11-26T07:29:59.458Z,86.90
2017-11-26T07:31:04.271Z,86.29
2017-11-26T07:32:09.027Z,86.36
2017-11-26T07:33:13.726Z,84.63
2017-11-26T07:34:18.536Z,85.39
2017-11-26T07:35:23.395Z,85.42
2017-11-26T07:36:28.077Z,86.74
2017-11-26T07:37:32.921Z,85.51
2017-11-26T07:38:37.709Z,86.39
2017-11-26T07:39:42.473Z,86.10
2017-11-26T07:40:47.185Z,87.29
2017-11-26T07:41:52.000Z,86.39
2017-11-26T07:42:57.074Z,86.39
2017-11-26T07:44:01.855Z,85.78
2017-11-26T07:45:06.681Z,86.65
2017-11-26T07:46:11.496Z,87.14
2017-11-26T07:47:16.487Z,87.04
2017-11-26T07:48:21.292Z,86.40
2017-11-26T07:49:26.407Z,86.34
2017-11-26T07:50:31.153Z,86.58
2017-11-26T07:51:35.937Z,87.50
2017-11-26T07:52:40.816Z,87.41
2017-11-26T07:53:45.594Z,87.33
2017-11-26T07:54:50.448Z,85.85
2017-11-26T07:55:55.490Z,85.88
2017-11-26T07:57:00.109Z,85.97
2017-11-26T07:58:04.896Z,85.48
2017-11-26T07:59:09.721Z,86.04
2017-11-26T08:00:14.636Z,85.82
2017-11-26T08:01:19.361Z,85.36
2017-11-26T08:02:24.608Z,85.86
2017-11-26T08:03:29.363Z,86.96
2017-11-26T08:04:34.084Z,85.98
2017-11-26T08:05:38.901Z,85.95
2017-11-26T08:06:43.627Z,86.36
2017-11-26T08:07:48.335Z,86.64
2017-11-26T08:08:54.554Z,86.64
2017-11-26T08:09:59.266Z,87.48
2017-11-26T08:11:03.987Z,87.00
2017-11-26T08:12:08.715Z,87.29
2017-11-26T08:13:13.449Z,86.85
2017-11-26T08:14:17.872Z,86.87
2017-11-26T08:15:22.985Z,86.83
2017-11-26T08:16:27.713Z,86.85
2017-11-26T08:17:32.479Z,88.02
2017-11-26T08:18:37.270Z,86.81
2017-11-26T08:19:41.976Z,88.11
2017-11-26T08:20:46.714Z,86.99
2017-11-26T08:21:51.786Z,87.42
2017-11-26T08:22:56.535Z,87.12
2017-11-26T08:24:01.355Z,86.61
2017-11-26T08:25:06.189Z,86.18
2017-11-26T08:26:10.943Z,86.19
2017-11-26T08:27:15.690Z,86.85
2017-11-26T08:28:20.866Z,87.19
2017-11-26T08:29:25.648Z,86.89
2017-11-26T08:30:30.379Z,86.66
2017-11-26T08:31:35.129Z,86.91
2017-11-26T08:32:39.881Z,86.55
2017-11-26T08:33:44.644Z,86.83
2017-11-26T08:34:49.837Z,87.27
2017-11-26T08:35:54.645Z,87.48
2017-11-26T08:36:59.674Z,87.80
2017-11-26T08:38:04.383Z,88.28
2017-11-26T08:39:09.062Z,88.58
2017-11-26T08:40:13.872Z,87.73
2017-11-26T08:41:19.198Z,88.42
2017-11-26T08:42:24.109Z,88.75
2017-11-26T08:43:28.763Z,88.14
2017-11-26T08:44:33.367Z,88.76
2017-11-26T08:45:38.017Z,89.18
2017-11-26T08:46:42.811Z,88.72
2017-11-26T08:47:48.114Z,89.12
2017-11-26T08:48:54.178Z,89.15
2017-11-26T08:49:59.116Z,89.17
2017-11-26T08:51:04.609Z,88.88
2017-11-26T08:52:09.394Z,89.35
2017-11-26T08:53:14.224Z,89.97
2017-11-26T08:54:19.486Z,89.72
2017-11-26T08:55:25.203Z,90.29
2017-11-26T08:56:30.111Z,90.56
2017-11-26T08:57:35.136Z,89.99
2017-11-26T08:58:39.970Z,89.86
2017-11-26T08:59:44.780Z,90.54
2017-11-26T09:00:50.195Z,89.91
2017-11-26T09:01:55.006Z,90.23
2017-11-26T09:02:59.877Z,90.83
2017-11-26T09:04:04.682Z,95.19
2017-11-26T09:05:09.481Z,94.93
2017-11-26T09:06:14.349Z,94.67
2017-11-26T09:07:19.550Z,90.75
2017-11-26T09:08:24.429Z,90.97
2017-11-26T09:09:29.304Z,89.99
2017-11-26T09:10:34.149Z,90.65
2017-11-26T09:11:38.980Z,90.62
2017-11-26T09:12:43.793Z,90.72
2017-11-26T09:13:49.037Z,91.44
2017-11-26T09:14:53.925Z,91.40
2017-11-26T09:15:58.670Z,90.55
2017-11-26T09:17:03.481Z,90.95
2017-11-26T09:18:08.288Z,90.53
2017-11-26T09:19:13.102Z,91.43
2017-11-26T09:20:18.939Z,91.52
2017-11-26T09:21:23.804Z,90.55
2017-11-26T09:22:28.562Z,91.51
2017-11-26T09:23:33.353Z,91.05
2017-11-26T09:24:38.169Z,90.58
2017-11-26T09:25:43.075Z,91.30
2017-11-26T09:26:48.293Z,90.36
2017-11-26T09:27:53.090Z,91.32
2017-11-26T09:28:57.752Z,90.50
2017-11-26T09:30:02.558Z,90.72
2017-11-26T09:31:08.031Z,90.30
2017-11-26T09:32:12.766Z,90.72
2017-11-26T09:33:18.184Z,89.84
2017-11-26T09:34:22.950Z,90.47
2017-11-26T09:35:27.679Z,91.03
2017-11-26T09:36:32.440Z,90.90
2017-11-26T09:37:37.241Z,90.64
2017-11-26T09:38:42.074Z,90.75
2017-11-26T09:39:47.345Z,90.91
2017-11-26T09:40:52.253Z,91.32
2017-11-26T09:41:56.970Z,90.98
2017-11-26T09:43:01.779Z,90.46
2017-11-26T09:44:06.529Z,92.47
2017-11-26T09:45:11.280Z,91.67
2017-11-26T09:46:16.521Z,91.26
2017-11-26T09:47:21.353Z,92.43
2017-11-26T09:48:26.004Z,92.49
2017-11-26T09:49:30.668Z,92.53
2017-11-26T09:50:35.438Z,92.18
2017-11-26T09:51:40.188Z,91.53
2017-11-26T09:52:45.378Z,91.44
2017-11-26T09:53:50.199Z,91.33
2017-11-26T09:54:55.035Z,91.22
2017-11-26T09:55:59.825Z,90.98
2017-11-26T09:57:05.243Z,91.50
2017-11-26T09:58:10.164Z,90.55
2017-11-26T09:59:15.473Z,90.78
2017-11-26T10:00:20.290Z,91.37
2017-11-26T10:01:25.141Z,91.23
2017-11-26T10:02:30.024Z,90.99
2017-11-26T10:03:34.814Z,91.23
2017-11-26T10:04:39.660Z,91.04
2017-11-26T10:05:44.899Z,91.43
2017-11-26T10:06:49.682Z,91.71
2017-11-26T10:07:54.554Z,91.37
2017-11-26T10:08:59.325Z,91.91
2017-11-26T10:10:07.477Z,92.05
2017-11-26T10:11:12.525Z,91.36
2017-11-26T10:12:17.738Z,90.53
2017-11-26T10:13:23.024Z,91.29
2017-11-26T10:14:27.813Z,90.71
2017-11-26T10:15:32.574Z,90.81
2017-11-26T10:16:37.404Z,91.02
2017-11-26T10:17:42.255Z,90.85
2017-11-26T10:18:47.385Z,91.87
2017-11-26T10:19:52.205Z,91.64
2017-11-26T10:20:56.968Z,91.96
2017-11-26T10:22:01.804Z,91.50
2017-11-26T10:23:06.582Z,91.37
2017-11-26T10:24:11.365Z,90.80
2017-11-26T10:25:16.501Z,90.67
2017-11-26T10:26:21.332Z,90.59
2017-11-26T10:27:26.141Z,90.49
2017-11-26T10:28:30.916Z,90.78
2017-11-26T10:29:35.728Z,90.25
2017-11-26T10:30:40.598Z,90.09
2017-11-26T10:31:45.838Z,91.12
2017-11-26T10:32:50.649Z,91.13
2017-11-26T10:33:56.185Z,90.85
2017-11-26T10:35:00.988Z,90.94
2017-11-26T10:36:05.856Z,91.18
2017-11-26T10:37:10.655Z,91.34
2017-11-26T10:38:15.959Z,92.33
2017-11-26T10:39:20.783Z,91.84
2017-11-26T10:40:25.565Z,91.96
2017-11-26T10:41:30.309Z,91.15
2017-11-26T10:42:35.076Z,91.45
2017-11-26T10:43:39.853Z,91.92
2017-11-26T10:44:44.990Z,91.17
2017-11-26T10:45:49.736Z,90.51
2017-11-26T10:46:54.490Z,91.37
2017-11-26T10:47:59.221Z,91.62
2017-11-26T10:49:03.934Z,90.80
2017-11-26T10:50:08.628Z,90.86
2017-11-26T10:51:13.759Z,90.64
2017-11-26T10:52:18.523Z,91.38
2017-11-26T10:53:23.328Z,91.75
2017-11-26T10:54:28.195Z,91.28
2017-11-26T10:55:32.931Z,90.41
2017-11-26T10:56:37.702Z,90.09
2017-11-26T10:57:42.767Z,91.54
2017-11-26T10:58:47.581Z,91.09
2017-11-26T11:15:31.266Z,91.88
2017-11-26T11:16:36.025Z,91.38
2017-11-26T11:17:40.835Z,91.07
2017-11-26T11:18:45.641Z,90.86
2017-11-26T11:19:50.385Z,90.87
2017-11-26T11:20:55.474Z,90.81
2017-11-26T11:22:00.242Z,89.64
2017-11-26T11:23:05.015Z,89.10
2017-11-26T11:24:09.698Z,89.64
2017-11-26T11:25:14.296Z,90.42
2017-11-26T11:26:18.986Z,91.45
2017-11-26T11:27:23.997Z,91.32
2017-11-26T11:28:28.790Z,90.74
2017-11-26T11:29:33.626Z,90.02
2017-11-26T11:30:38.423Z,90.17
2017-11-26T11:31:43.182Z,90.56
2017-11-26T11:32:47.957Z,89.95
2017-11-26T11:33:52.987Z,90.83
2017-11-26T11:34:57.785Z,90.61
2017-11-26T11:36:02.633Z,90.76
2017-11-26T11:37:07.417Z,90.44
2017-11-26T11:38:12.225Z,90.26
2017-11-26T11:39:16.983Z,91.39
2017-11-26T11:40:22.080Z,90.90
2017-11-26T11:41:26.887Z,91.47
2017-11-26T11:42:32.626Z,91.71
2017-11-26T11:43:37.398Z,91.00
2017-11-26T11:44:42.440Z,91.51
2017-11-26T11:45:47.185Z,91.16
2017-11-26T11:46:52.246Z,91.77
2017-11-26T11:47:57.071Z,91.70
2017-11-26T11:49:01.909Z,91.78
2017-11-26T11:50:07.274Z,91.55
2017-11-26T11:51:12.177Z,89.99
2017-11-26T11:52:17.080Z,90.44
2017-11-26T11:53:22.364Z,90.92
2017-11-26T11:54:27.226Z,90.06
2017-11-26T11:55:32.042Z,90.78
2017-11-26T11:56:36.803Z,91.00
2017-11-26T11:57:41.615Z,90.69
2017-11-26T11:58:46.364Z,90.88
2017-11-26T11:59:51.205Z,90.71
2017-11-26T12:00:56.093Z,90.87
2017-11-26T12:02:00.882Z,94.93
2017-11-26T12:03:05.896Z,95.35
2017-11-26T12:04:10.847Z,95.42
2017-11-26T12:05:16.762Z,95.94
2017-11-26T12:06:21.625Z,95.83
2017-11-26T12:07:27.426Z,95.16
2017-11-26T12:08:32.482Z,95.41
2017-11-26T12:09:37.297Z,95.76
2017-11-26T12:10:42.284Z,95.95
2017-11-26T12:11:47.430Z,95.54
2017-11-26T12:12:52.404Z,95.88
2017-11-26T12:13:57.206Z,95.93
2017-11-26T12:15:02.093Z,95.23
2017-11-26T12:16:06.872Z,95.09
2017-11-26T12:17:11.826Z,95.21
2017-11-26T12:18:16.971Z,95.46
2017-11-26T12:19:21.775Z,95.33
2017-11-26T12:20:26.687Z,95.82
2017-11-26T12:21:31.696Z,95.43
2017-11-26T12:22:36.525Z,95.60
2017-11-26T12:23:41.496Z,92.63
2017-11-26T12:24:46.705Z,91.56
2017-11-26T12:25:51.562Z,90.63
2017-11-26T12:26:56.531Z,91.70
2017-11-26T12:28:01.332Z,91.60
2017-11-26T12:29:06.217Z,91.54
2017-11-26T12:30:11.062Z,91.73
2017-11-26T12:31:16.185Z,90.85
2017-11-26T12:32:21.070Z,91.02
2017-11-26T12:33:25.893Z,92.07
2017-11-26T12:34:30.853Z,92.38
2017-11-26T12:35:35.755Z,92.08
2017-11-26T12:36:40.710Z,91.96
2017-11-26T12:37:45.867Z,91.76
2017-11-26T12:38:50.655Z,91.99
2017-11-26T12:39:55.617Z,91.12
2017-11-26T12:41:00.508Z,90.89
2017-11-26T12:42:05.366Z,91.50
2017-11-26T12:43:10.312Z,90.92
2017-11-26T12:44:15.391Z,91.25
2017-11-26T12:45:20.158Z,91.43
2017-11-26T12:46:25.002Z,91.00
2017-11-26T12:47:29.778Z,90.58
2017-11-26T12:48:34.539Z,90.92
2017-11-26T12:49:39.280Z,91.21
2017-11-26T12:50:44.053Z,90.67
2017-11-26T12:51:48.797Z,90.02
2017-11-26T12:52:53.533Z,89.85
2017-11-26T12:53:58.689Z,90.74
2017-11-26T12:55:03.437Z,91.22
2017-11-26T12:56:08.498Z,90.67
2017-11-26T12:57:13.294Z,90.08
2017-11-26T12:58:18.124Z,90.34
2017-11-26T12:59:22.969Z,90.71
2017-11-26T13:00:27.802Z,91.38
2017-11-26T13:01:32.631Z,90.58
2017-11-26T13:02:37.745Z,89.71
2017-11-26T13:03:42.639Z,89.61
2017-11-26T13:04:47.524Z,89.70
2017-11-26T13:05:52.411Z,90.64
2017-11-26T13:06:57.183Z,90.96
2017-11-26T13:08:01.968Z,89.89
2017-11-26T13:09:07.187Z,90.95
2017-11-26T13:10:12.223Z,89.83
2017-11-26T13:11:16.998Z,89.35
2017-11-26T13:12:21.836Z,89.81
2017-11-26T13:13:26.627Z,90.43
2017-11-26T13:14:31.315Z,90.44
2017-11-26T13:15:36.485Z,91.33
2017-11-26T13:16:41.237Z,91.49
2017-11-26T13:17:46.140Z,89.72
2017-11-26T13:18:50.869Z,90.58
2017-11-26T13:19:55.662Z,90.45
2017-11-26T13:21:00.477Z,91.00
2017-11-26T13:22:05.548Z,90.34
2017-11-26T13:23:10.332Z,89.39
2017-11-26T13:24:15.170Z,89.64
2017-11-26T13:25:20.001Z,90.46
2017-11-26T13:26:24.796Z,90.59
2017-11-26T13:27:29.815Z,90.38
2017-11-26T13:28:34.917Z,90.69
2017-11-26T13:29:39.721Z,91.26
2017-11-26T13:30:44.630Z,90.78
2017-11-26T13:31:49.403Z,90.73
2017-11-26T13:32:54.204Z,90.63
2017-11-26T13:33:58.974Z,90.11
2017-11-26T13:35:04.093Z,90.08
2017-11-26T13:36:08.866Z,91.21
2017-11-26T13:37:13.625Z,91.02
2017-11-26T13:38:18.783Z,91.21
2017-11-26T13:39:23.566Z,90.70
2017-11-26T13:40:28.276Z,89.98
2017-11-26T13:41:33.437Z,90.41
2017-11-26T13:42:38.274Z,90.57
2017-11-26T13:43:43.225Z,91.02
2017-11-26T13:44:48.066Z,91.15
2017-11-26T13:45:53.373Z,91.09
2017-11-26T13:46:58.352Z,91.05
2017-11-26T13:48:04.464Z,90.87
2017-11-26T13:49:09.408Z,91.16
2017-11-26T13:50:14.124Z,90.01
2017-11-26T13:51:18.984Z,90.54
2017-11-26T13:52:23.855Z,90.07
2017-11-26T13:53:28.666Z,90.25
2017-11-26T13:54:33.932Z,90.80
2017-11-26T13:55:38.695Z,90.77
2017-11-26T13:56:43.493Z,89.79
2017-11-26T13:57:48.340Z,89.87
2017-11-26T13:58:53.162Z,90.46
2017-11-26T13:59:57.985Z,90.47
2017-11-26T14:01:02.791Z,90.71
2017-11-26T14:02:07.730Z,91.50
2017-11-26T14:03:12.595Z,89.52
2017-11-26T14:04:17.501Z,89.71
2017-11-26T14:05:22.276Z,90.16
2017-11-26T14:06:27.505Z,89.40
2017-11-26T14:07:32.381Z,90.69
2017-11-26T14:08:37.256Z,90.45
2017-11-26T14:09:42.229Z,90.34
2017-11-26T14:10:47.137Z,90.67
2017-11-26T14:11:52.015Z,90.75
2017-11-26T14:12:57.261Z,90.19
2017-11-26T14:14:02.051Z,90.16
2017-11-26T14:15:06.911Z,90.93
2017-11-26T14:16:11.696Z,91.11
2017-11-26T14:17:16.468Z,90.90
2017-11-26T14:18:21.451Z,90.97
2017-11-26T14:19:26.790Z,90.61
2017-11-26T14:20:31.572Z,90.48
2017-11-26T14:21:36.364Z,91.03
2017-11-26T14:22:41.440Z,90.73
2017-11-26T14:23:46.321Z,91.06
2017-11-26T14:24:51.642Z,89.90
2017-11-26T14:25:56.539Z,89.78
2017-11-26T14:27:01.456Z,89.83
2017-11-26T14:28:06.297Z,89.87
2017-11-26T14:29:11.163Z,89.86
2017-11-26T14:59:18.777Z,30.00
2017-11-26T15:00:23.723Z,33.37